Eleonora E — MEDD4 — position and weather

sailwx.info

Track history (hours):
 
Tides and Currents Weather Stations Pressure Air Temp Water Temp Dewpoint Dewpoint Depression Visibility Wind Speed Wind Dir Waves Ship Positions

Eleonora E

Last reported at 2016-May-29 12:04 UTC. Time now 2016-May-29 19:16 UTC.
Position N 43°43' E 007°25'.

Length 41 m; draft 5.2 m.

Type: Sailing vessel. MMSI: 235008680.

Date/timePositionNaut miles runAvg speedWind from/ knotsBaromVisibWave heightAir tempDewpointWater temp
2016-May-29 12:04N 43°43' E 007°25'0 0.0
2016-May-29 11:28N 43°43' E 007°25'0 0.0
2016-May-29 10:33N 43°43' E 007°25'  
2016-May-26 18:33N 43°41' E 007°18'9 8.7
2016-May-26 17:33N 43°36' E 007°08'0 0.3
2016-May-26 16:33N 43°36' E 007°08'0 0.0
2016-May-26 15:33N 43°36' E 007°08'0 0.0
2016-May-26 14:33N 43°36' E 007°08'4 3.7
2016-May-26 13:33N 43°32' E 007°09'90 9.0
2016-May-26 03:33N 42°36' E 005°32'  
2016-May-23 19:27N 41°06' E 001°15'0 0.0
2016-May-23 18:33N 41°06' E 001°15'  
Track history (hours):
 
Tides and Currents Weather Stations Pressure Air Temp Water Temp Dewpoint Dewpoint Depression Visibility Wind Speed Wind Dir Waves Ship Positions

Eleonora E

Last reported at 2016-May-29 12:04 UTC. Time now 2016-May-29 19:16 UTC.
Position N 43°43' E 007°25'.

Length 41 m; draft 5.2 m.

Type: Sailing vessel. MMSI: 235008680.

Date/timePositionNaut miles runAvg speedWind from/ knotsBaromVisibWave heightAir tempDewpointWater temp
2016-May-29 12:04N 43°43' E 007°25'0 0.0
2016-May-29 11:28N 43°43' E 007°25'0 0.0
2016-May-29 10:33N 43°43' E 007°25'  
2016-May-26 18:33N 43°41' E 007°18'9 8.7
2016-May-26 17:33N 43°36' E 007°08'0 0.3
2016-May-26 16:33N 43°36' E 007°08'0 0.0
2016-May-26 15:33N 43°36' E 007°08'0 0.0
2016-May-26 14:33N 43°36' E 007°08'4 3.7
2016-May-26 13:33N 43°32' E 007°09'90 9.0
2016-May-26 03:33N 42°36' E 005°32'  
2016-May-23 19:27N 41°06' E 001°15'0 0.0
2016-May-23 18:33N 41°06' E 001°15'  

Dump ship's entire track history